Time;durP1;ratioP1;P1;durP2;ratioP2;P2;SDS_P1;SDS_P2;PMS_P1;PMS_P2;Temp;Humidity;BMP_temperature;BMP_pressure;BME280_temperature;BME280_humidity;BME280_pressure;Samples;Min_cycle;Max_cycle;Signal;HPM_P1;HPM_P2
2023/03/03 08:11:19;;;;;;;;;87.33;66.33;;;;;2.53;100.00;102205.00;5273309;23;51596;-69
2023/03/03 08:13:45;;;;;;;;;84.67;65.67;;;;;2.57;100.00;102162.94;4926617;28;49810;-69
2023/03/03 08:16:10;;;;;;;;;92.00;71.33;;;;;2.90;100.00;102224.22;4911224;28;49830;-70
2023/03/03 08:18:45;;;;;;;;;81.00;67.00;;;;;2.81;100.00;102214.06;4902772;28;51468;-72
2023/03/03 08:21:17;;;;;;;;;79.33;64.33;;;;;2.74;100.00;102211.78;4904379;28;50015;-70
2023/03/03 08:23:43;;;;;;;;;86.33;66.67;;;;;2.44;100.00;102155.03;4911314;28;50026;-71
2023/03/03 08:26:09;;;;;;;;;87.67;67.67;;;;;2.84;100.00;102232.44;4907401;28;49989;-71
2023/03/03 08:28:34;;;;;;;;;82.67;62.33;;;;;2.77;100.00;102212.00;4907311;28;50366;-71
2023/03/03 08:31:00;;;;;;;;;89.33;66.33;;;;;2.39;100.00;102133.94;4902395;28;50841;-71
2023/03/03 08:33:25;;;;;;;;;84.33;65.00;;;;;2.29;100.00;102121.09;4903794;28;49675;-71
2023/03/03 08:35:50;;;;;;;;;85.33;61.67;;;;;2.35;100.00;102154.34;4904789;28;50084;-70
2023/03/03 08:38:20;;;;;;;;;84.67;64.67;;;;;2.82;100.00;102236.63;4904953;28;50788;-71
2023/03/03 08:40:46;;;;;;;;;89.00;69.00;;;;;2.79;100.00;102215.59;4909102;28;50678;-72
2023/03/03 08:43:16;;;;;;;;;83.67;65.33;;;;;2.17;100.00;102095.16;4905287;28;49841;-71
2023/03/03 08:45:45;;;;;;;;;86.67;66.67;;;;;2.90;100.00;102218.13;4903435;28;49868;-72
2023/03/03 08:48:11;;;;;;;;;90.00;66.67;;;;;2.87;100.00;102206.72;4905527;28;52600;-71
2023/03/03 08:50:37;;;;;;;;;87.67;67.00;;;;;2.60;100.00;102147.59;4910168;28;49755;-72
2023/03/03 08:53:03;;;;;;;;;86.67;63.67;;;;;3.15;100.00;102226.94;4912449;28;49856;-72
2023/03/03 08:55:28;;;;;;;;;85.33;66.00;;;;;3.36;100.00;102233.69;4913943;28;49632;-72
2023/03/03 08:57:53;;;;;;;;;84.00;64.00;;;;;3.01;100.00;102165.34;4912999;28;52343;-73
2023/03/03 09:00:20;;;;;;;;;87.33;69.33;;;;;3.27;100.00;102196.69;4913227;28;49885;-71
2023/03/03 09:02:45;;;;;;;;;82.33;64.33;;;;;3.29;100.00;102204.59;4913322;28;49835;-67
2023/03/03 09:05:12;;;;;;;;;85.67;66.00;;;;;3.10;100.00;102172.13;4913294;28;49771;-64
2023/03/03 09:07:38;;;;;;;;;83.33;67.00;;;;;3.40;100.00;102211.47;4912520;28;49660;-69
2023/03/03 09:10:05;;;;;;;;;79.33;64.00;;;;;3.38;100.00;102210.47;4911992;28;49816;-69
2023/03/03 09:12:37;;;;;;;;;83.33;66.67;;;;;3.42;100.00;102213.38;4909151;28;50029;-68
2023/03/03 09:15:27;;;;;;;;;87.33;67.00;;;;;3.40;100.00;102196.78;4901738;28;49888;-68
2023/03/03 09:17:56;;;;;;;;;72.33;58.33;;;;;3.54;100.00;102225.44;4907171;28;50501;-71
2023/03/03 09:20:26;;;;;;;;;76.00;60.33;;;;;3.51;100.00;102218.34;4913453;28;49774;-78
2023/03/03 09:22:51;;;;;;;;;79.33;61.00;;;;;3.58;100.00;102214.50;4912966;28;49987;-62
2023/03/03 09:25:22;;;;;;;;;89.67;70.67;;;;;3.80;100.00;102254.19;4911867;28;50009;-61
2023/03/03 09:27:47;;;;;;;;;76.67;61.00;;;;;3.64;100.00;102226.22;4912035;28;49695;-61
2023/03/03 09:30:25;;;;;;;;;78.00;61.33;;;;;3.84;100.00;102248.41;4912277;28;59420;-64
2023/03/03 09:32:51;;;;;;;;;91.33;67.67;;;;;3.58;100.00;102206.72;4912819;28;49784;-66
2023/03/03 09:35:25;;;;;;;;;88.67;68.67;;;;;3.94;100.00;102250.88;4912834;28;49580;-67
2023/03/03 09:37:51;;;;;;;;;80.33;62.67;;;;;3.85;100.00;102218.13;4912303;28;49975;-64
2023/03/03 09:40:51;;;;;;;;;87.33;65.33;;;;;4.06;100.00;102250.84;4909701;28;49774;-65
2023/03/03 09:43:23;;;;;;;;;80.00;61.00;;;;;3.86;100.00;102202.69;4922411;28;49765;-64
2023/03/03 09:46:15;;;;;;;;;72.33;56.00;;;;;3.98;100.00;102219.13;4922716;28;49415;-64
2023/03/03 09:48:46;;;;;;;;;77.67;59.33;;;;;4.25;100.00;102248.75;4924855;28;50556;-65
2023/03/03 09:51:29;;;;;;;;;76.00;60.67;;;;;4.06;100.00;102200.59;4924913;28;49616;-65
2023/03/03 09:54:26;;;;;;;;;72.33;57.00;;;;;4.34;100.00;102243.25;4919662;28;49492;-65
2023/03/03 09:57:22;;;;;;;;;71.67;58.33;;;;;4.40;100.00;102241.09;4895394;28;50186;-65
2023/03/03 09:59:59;;;;;;;;;79.67;58.33;;;;;4.55;100.00;102244.78;4906602;28;49772;-64
2023/03/03 10:02:37;;;;;;;;;59.33;50.67;;;;;4.58;100.00;102251.88;4909239;28;50027;-65
2023/03/03 10:05:18;;;;;;;;;71.33;53.67;;;;;4.65;100.00;102255.81;4915713;28;50037;-69
2023/03/03 10:07:54;;;;;;;;;61.67;52.33;;;;;4.75;100.00;102248.72;4914668;28;49815;-64
2023/03/03 10:10:29;;;;;;;;;66.67;52.67;;;;;4.78;100.00;102237.63;4916694;28;49982;-65
2023/03/03 10:13:10;;;;;;;;;69.00;52.33;;;;;4.77;100.00;102243.63;4915031;28;50240;-67
2023/03/03 10:15:45;;;;;;;;;73.33;54.00;;;;;4.74;100.00;102231.31;4911067;28;49975;-66
2023/03/03 10:18:38;;;;;;;;;69.00;55.00;;;;;4.86;100.00;102239.94;4911360;28;49804;-65
2023/03/03 10:21:18;;;;;;;;;67.00;54.33;;;;;5.09;100.00;102257.09;4905552;28;49890;-67
2023/03/03 10:24:01;;;;;;;;;66.00;53.00;;;;;5.15;100.00;102260.09;4909346;28;50106;-65
2023/03/03 10:26:38;;;;;;;;;59.67;44.33;;;;;5.25;100.00;102266.81;4909099;28;49703;-65
2023/03/03 10:29:32;;;;;;;;;71.50;55.00;;;;;5.24;100.00;102243.28;4902785;28;49822;-65
2023/03/03 10:32:11;;;;;;;;;71.25;53.00;;;;;5.45;100.00;102265.53;4906120;28;49752;-62
2023/03/03 10:34:57;;;;;;;;;69.00;51.75;;;;;5.49;100.00;102264.91;4905377;28;50079;-63
2023/03/03 10:37:49;;;;;;;;;64.00;48.00;;;;;5.51;100.00;102265.03;4906536;28;49783;-64
2023/03/03 10:40:20;;;;;;;;;67.25;52.75;;;;;5.53;100.00;102261.72;4902445;28;49812;-67
2023/03/03 10:43:00;;;;;;;;;52.25;42.00;;;;;5.55;100.00;102265.31;4905279;28;50000;-64
2023/03/03 10:46:09;;;;;;;;;60.50;48.50;;;;;5.50;100.00;102238.09;4906039;28;49771;-65
2023/03/03 10:48:53;;;;;;;;;61.25;47.75;;;;;5.64;100.00;102271.13;4904237;28;49826;-67
2023/03/03 10:51:57;;;;;;;;;78.33;63.67;;;;;5.74;100.00;102263.09;4904410;28;50912;-63
2023/03/03 10:54:44;;;;;;;;;66.00;52.33;;;;;5.81;100.00;102259.19;4905618;28;50126;-63
2023/03/03 10:57:10;;;;;;;;;62.00;47.25;;;;;5.81;100.00;102263.50;4903378;28;50885;-64
2023/03/03 10:59:50;;;;;;;;;75.25;56.00;;;;;5.79;100.00;102250.38;4908675;28;49764;-65
2023/03/03 11:02:42;;;;;;;;;59.50;48.25;;;;;5.90;100.00;102261.47;4913068;28;49815;-69
2023/03/03 11:06:04;;;;;;;;;65.00;49.75;;;;;6.06;100.00;102265.97;4880073;28;50167;-65
2023/03/03 11:08:41;;;;;;;;;19.50;17.75;;;;;5.95;100.00;102241.84;4884577;29;49816;-64
2023/03/03 11:11:36;;;;;;;;;60.50;49.75;;;;;6.15;100.00;102262.22;4911952;28;49716;-64
2023/03/03 11:14:14;;;;;;;;;60.50;48.25;;;;;6.10;100.00;102232.38;4906727;28;49913;-65
2023/03/03 11:16:59;;;;;;;;;56.50;46.25;;;;;6.30;100.00;102252.75;4911234;28;50930;-64
2023/03/03 11:19:34;;;;;;;;;55.75;46.25;;;;;6.35;100.00;102253.03;4916745;28;49894;-64
2023/03/03 11:22:08;;;;;;;;;61.00;45.75;;;;;6.35;100.00;102231.25;4910826;28;49775;-63
2023/03/03 11:24:47;;;;;;;;;61.50;46.25;;;;;6.31;100.00;102223.25;4914928;28;49594;-63
2023/03/03 11:27:19;;;;;;;;;61.75;46.75;;;;;6.49;100.00;102244.34;4903940;28;49746;-67
2023/03/03 11:29:50;;;;;;;;;59.00;46.75;;;;;6.56;100.00;102253.44;4903655;28;49973;-81
2023/03/03 11:32:42;;;;;;;;;56.00;44.00;;;;;6.63;100.00;102249.50;4921554;28;49877;-71
2023/03/03 11:35:43;;;;;;;;;52.75;43.25;;;;;6.57;100.00;102221.34;4909488;28;49767;-72
2023/03/03 11:38:18;;;;;;;;;26.50;21.75;;;;;6.74;100.00;102243.22;4891396;28;50971;-73
2023/03/03 11:41:03;;;;;;;;;52.75;43.25;;;;;6.55;100.00;102205.56;4902988;28;50001;-69
2023/03/03 11:44:04;;;;;;;;;52.25;38.50;;;;;6.67;100.00;102209.75;4908427;28;49933;-70
2023/03/03 11:46:34;;;;;;;;;49.50;41.50;;;;;6.72;100.00;102208.28;4913882;28;49877;-70
2023/03/03 11:49:05;;;;;;;;;59.00;42.50;;;;;6.60;100.00;102158.91;4906593;28;58641;-68
2023/03/03 11:51:46;;;;;;;;;60.00;47.25;;;;;7.11;100.00;102228.00;4919456;28;49777;-69
2023/03/03 11:54:23;;;;;;;;;56.00;43.00;;;;;7.13;100.00;102232.50;4914172;28;50089;-75
2023/03/03 11:56:52;;;;;;;;;54.50;42.25;;;;;7.01;100.00;102191.72;4913871;28;49788;-69
2023/03/03 11:59:29;;;;;;;;;42.25;32.75;;;;;7.19;100.00;102231.97;4913832;28;49952;-74
2023/03/03 12:02:32;;;;;;;;;41.50;34.50;;;;;7.26;100.00;102215.84;4919182;28;49623;-69
2023/03/03 12:05:33;;;;;;;;;37.00;35.50;;;;;7.30;100.00;102199.53;4919916;28;49676;-71
2023/03/03 12:08:27;;;;;;;;;43.50;38.25;;;;;7.14;100.00;102158.59;4913446;28;50225;-67
2023/03/03 12:11:08;;;;;;;;;36.75;35.25;;;;;7.39;100.00;102184.38;4928902;28;50801;-67
2023/03/03 12:13:52;;;;;;;;;45.50;38.00;;;;;7.57;100.00;102215.84;4930088;28;49262;-68
2023/03/03 12:16:40;;;;;;;;;43.50;33.25;;;;;7.60;100.00;102205.56;4930811;28;49439;-72
2023/03/03 12:19:10;;;;;;;;;37.00;35.25;;;;;7.69;100.00;102208.69;4931450;28;49225;-70
2023/03/03 12:21:38;;;;;;;;;34.75;30.00;;;;;7.79;100.00;102207.47;4927158;28;49790;-68
2023/03/03 12:24:15;;;;;;;;;42.00;37.25;;;;;7.59;98.88;102174.13;4913619;28;49667;-70
2023/03/03 12:27:06;;;;;;;;;38.00;35.25;;;;;7.77;100.00;102179.47;4913169;28;49770;-68
2023/03/03 12:29:45;;;;;;;;;15.50;7.00;;;;;7.93;98.99;102192.56;4912056;28;49749;-70
2023/03/03 12:32:10;;;;;;;;;32.75;30.25;;;;;7.94;96.52;102205.72;4911379;28;52510;-71
2023/03/03 12:35:02;;;;;;;;;32.25;24.50;;;;;7.84;94.66;102173.75;4916371;28;49716;-73
2023/03/03 12:37:33;;;;;;;;;27.00;22.00;;;;;8.01;93.64;102189.56;4913563;28;49492;-70
2023/03/03 12:40:34;;;;;;;;;29.25;26.00;;;;;8.06;93.12;102191.50;4908044;28;49922;-73
2023/03/03 12:43:37;;;;;;;;;36.25;32.25;;;;;8.01;93.31;102186.03;4906526;28;50325;-70
2023/03/03 12:46:15;;;;;;;;;37.25;37.25;;;;;7.94;91.28;102169.13;4915052;28;49784;-66
2023/03/03 12:48:42;;;;;;;;;34.25;28.50;;;;;7.97;92.28;102156.19;4922824;28;49503;-67
2023/03/03 12:51:35;;;;;;;;;30.25;26.25;;;;;8.23;90.13;102195.91;4920303;28;49796;-65
2023/03/03 12:54:22;;;;;;;;;37.00;32.50;;;;;8.18;90.57;102184.31;4917646;28;49764;-65
2023/03/03 12:56:54;;;;;;;;;25.75;23.50;;;;;8.09;88.83;102149.81;4912861;28;50055;-63
2023/03/03 12:59:42;;;;;;;;;31.25;24.00;;;;;8.30;86.40;102198.06;4926725;28;49568;-70
2023/03/03 13:02:08;;;;;;;;;32.50;30.00;;;;;8.22;89.11;102170.59;4927940;28;49382;-64
2023/03/03 13:04:47;;;;;;;;;32.00;29.25;;;;;8.24;87.18;102176.78;4926008;28;49789;-64
2023/03/03 13:07:29;;;;;;;;;33.50;30.00;;;;;8.28;86.08;102165.66;4921918;28;49799;-77
2023/03/03 13:10:10;;;;;;;;;34.00;26.25;;;;;8.31;85.90;102182.44;4912758;28;49747;-64
2023/03/03 13:12:53;;;;;;;;;36.50;31.75;;;;;8.37;86.15;102181.88;4930045;28;49867;-63
2023/03/03 13:15:28;;;;;;;;;38.50;31.25;;;;;8.16;88.18;102131.91;4926321;28;51433;-63
2023/03/03 13:18:08;;;;;;;;;34.50;26.75;;;;;8.53;86.93;102173.09;4915620;28;49667;-66
2023/03/03 13:20:43;;;;;;;;;29.50;26.25;;;;;8.57;87.41;102175.03;4913512;28;50626;-75
2023/03/03 13:23:23;;;;;;;;;34.75;28.00;;;;;8.23;86.25;102113.09;4911542;28;49926;-67
2023/03/03 13:25:48;;;;;;;;;25.75;25.00;;;;;7.73;84.50;102024.19;4909260;28;50754;-68
2023/03/03 13:28:32;;;;;;;;;33.25;25.00;;;;;8.57;83.93;102169.81;4909752;28;49823;-61
2023/03/03 13:31:32;;;;;;;;;28.75;23.75;;;;;8.28;84.33;102109.00;4908556;28;49975;-65
2023/03/03 13:34:00;;;;;;;;;19.75;12.25;;;;;8.66;83.52;102164.16;4901604;28;50040;-61
2023/03/03 13:36:49;;;;;;;;;31.00;29.00;;;;;8.53;82.59;102128.63;4902598;28;50931;-62
2023/03/03 13:39:47;;;;;;;;;26.25;22.25;;;;;8.74;83.32;102161.09;4905553;28;49892;-64
2023/03/03 13:42:22;;;;;;;;;33.00;26.75;;;;;8.82;84.03;102166.72;4917660;28;49908;-61
2023/03/03 13:44:49;;;;;;;;;30.50;29.75;;;;;8.71;82.70;102139.13;4909490;28;49870;-62
2023/03/03 13:47:23;;;;;;;;;27.25;20.00;;;;;8.79;81.82;102148.25;4906193;28;51692;-61
2023/03/03 13:50:23;;;;;;;;;28.25;20.50;;;;;8.89;79.89;102167.13;4911243;28;49883;-60
2023/03/03 13:53:07;;;;;;;;;31.00;26.25;;;;;8.97;80.74;102163.97;4905195;28;49712;-61
2023/03/03 13:55:42;;;;;;;;;30.25;23.75;;;;;8.95;78.08;102145.56;4902887;28;49824;-63
2023/03/03 13:58:39;;;;;;;;;29.50;29.00;;;;;9.07;81.29;102160.97;4905516;28;49819;-62
2023/03/03 14:01:19;;;;;;;;;24.75;22.00;;;;;9.06;82.43;102154.84;4911485;28;49676;-70
2023/03/03 14:04:00;;;;;;;;;35.00;34.25;;;;;9.13;83.92;102159.56;4936807;28;49476;-66
2023/03/03 14:06:28;;;;;;;;;20.25;18.25;;;;;9.11;81.68;102158.59;4916681;28;49650;-63
2023/03/03 14:09:05;;;;;;;;;23.25;22.00;;;;;9.03;83.00;102132.84;4914100;28;49673;-70
2023/03/03 14:12:02;;;;;;;;;37.75;31.25;;;;;9.26;84.54;102147.94;4905281;28;50249;-64
2023/03/03 14:15:03;;;;;;;;;34.25;30.50;;;;;9.22;86.06;102134.63;4905880;28;49750;-70
2023/03/03 14:17:39;;;;;;;;;30.50;30.50;;;;;9.32;81.27;102166.59;4920656;28;49834;-65
2023/03/03 14:20:21;;;;;;;;;31.25;30.75;;;;;9.30;81.18;102149.91;4919422;28;51040;-67
2023/03/03 14:22:55;;;;;;;;;40.75;36.75;;;;;9.35;82.82;102151.00;4908063;28;49938;-70
2023/03/03 14:25:21;;;;;;;;;32.50;27.75;;;;;9.05;83.13;102100.66;4929806;28;50217;-62
2023/03/03 14:27:46;;;;;;;;;37.00;32.75;;;;;9.36;84.03;102150.22;4933122;28;49316;-63
2023/03/03 14:30:21;;;;;;;;;24.50;21.75;;;;;9.36;82.53;102149.28;4921243;28;49815;-63
2023/03/03 14:33:00;;;;;;;;;37.75;32.25;;;;;9.18;82.82;102123.13;4923166;28;49592;-69
2023/03/03 14:35:31;;;;;;;;;35.00;30.75;;;;;9.12;83.15;102097.50;4929616;28;49650;-65
2023/03/03 14:38:18;;;;;;;;;42.25;36.25;;;;;9.27;84.78;102130.53;4923752;28;49916;-64
2023/03/03 14:40:45;;;;;;;;;39.00;34.00;;;;;9.24;85.61;102118.16;4926519;28;50035;-64
2023/03/03 14:43:35;;;;;;;;;39.00;35.25;;;;;9.37;85.24;102143.25;4921351;28;49794;-61
2023/03/03 14:46:25;;;;;;;;;40.00;36.25;;;;;9.39;87.37;102141.59;4929693;28;49369;-62
2023/03/03 14:48:53;;;;;;;;;39.75;36.75;;;;;9.37;87.25;102122.28;4932049;28;49364;-62
2023/03/03 14:51:44;;;;;;;;;18.00;17.00;;;;;9.40;83.73;102139.03;4930220;28;50673;-61
2023/03/03 14:54:27;;;;;;;;;29.00;29.00;;;;;9.20;84.51;102112.72;4918247;28;49826;-62
2023/03/03 14:56:55;;;;;;;;;34.00;30.50;;;;;9.34;84.32;102136.09;4914975;28;49747;-61
2023/03/03 14:59:25;;;;;;;;;51.75;40.75;;;;;9.12;85.64;102113.22;4915046;28;50022;-62
2023/03/03 15:02:09;;;;;;;;;27.50;27.50;;;;;9.32;86.27;102129.00;4914666;28;49869;-65
2023/03/03 15:04:38;;;;;;;;;38.00;34.75;;;;;9.07;86.25;102103.34;4914962;28;49975;-63
2023/03/03 15:07:34;;;;;;;;;32.00;29.25;;;;;9.32;87.37;102135.13;4913382;28;49748;-64
2023/03/03 15:10:00;;;;;;;;;41.00;36.75;;;;;9.23;87.24;102136.44;4911958;28;49636;-63
2023/03/03 15:12:39;;;;;;;;;33.25;28.25;;;;;8.99;88.21;102092.53;4914683;28;50588;-62
2023/03/03 15:15:18;;;;;;;;;38.00;36.50;;;;;9.12;86.50;102149.00;4914702;28;49859;-65
2023/03/03 15:18:01;;;;;;;;;34.00;29.75;;;;;8.71;87.17;102081.53;4914881;28;49840;-74
2023/03/03 15:21:00;;;;;;;;;25.75;22.25;;;;;9.06;86.09;102146.06;4915053;28;49823;-68
2023/03/03 15:23:50;;;;;;;;;34.25;28.75;;;;;8.97;86.74;102143.91;4913283;28;50623;-69
2023/03/03 15:26:27;;;;;;;;;39.50;37.25;;;;;8.82;87.79;102119.59;4912989;28;50006;-66
2023/03/03 15:29:21;;;;;;;;;34.00;25.50;;;;;8.78;87.58;102129.03;4913385;28;50227;-66
2023/03/03 15:31:51;;;;;;;;;35.75;31.00;;;;;8.94;88.49;102153.34;4913550;28;50045;-74
2023/03/03 15:34:23;;;;;;;;;40.25;34.50;;;;;8.63;87.76;102107.31;4912357;28;51139;-67
2023/03/03 15:37:03;;;;;;;;;46.25;36.75;;;;;8.48;88.21;102082.97;4913026;28;49864;-64
2023/03/03 15:39:47;;;;;;;;;31.25;30.50;;;;;8.89;88.52;102151.41;4912810;28;49819;-73
2023/03/03 15:42:46;;;;;;;;;35.25;31.00;;;;;8.84;88.13;102152.88;4913221;28;49726;-72
2023/03/03 15:45:28;;;;;;;;;34.25;31.75;;;;;8.76;86.18;102167.31;4914091;28;49824;-72
2023/03/03 15:48:14;;;;;;;;;28.50;26.75;;;;;8.63;85.37;102159.66;4912711;28;49878;-73
2023/03/03 15:51:09;;;;;;;;;28.75;24.00;;;;;8.33;86.73;102117.09;4914269;28;49726;-72
2023/03/03 15:53:37;;;;;;;;;39.75;31.00;;;;;8.54;86.85;102156.56;4914490;28;49517;-69
2023/03/03 15:56:05;;;;;;;;;31.50;27.25;;;;;8.55;87.00;102155.75;4913583;28;49726;-71
2023/03/03 15:58:52;;;;;;;;;40.50;31.25;;;;;8.50;88.81;102160.78;4914332;28;49906;-70
2023/03/03 16:01:25;;;;;;;;;31.50;31.50;;;;;8.10;88.42;102135.91;4914628;28;49982;-71
2023/03/03 16:03:59;;;;;;;;;42.00;36.00;;;;;8.22;90.08;102144.44;4908708;28;49966;-68
2023/03/03 16:06:24;;;;;;;;;28.50;25.50;;;;;8.31;90.58;102147.53;4907190;28;51549;-74
2023/03/03 16:09:29;;;;;;;;;41.50;34.75;;;;;7.53;91.82;102056.19;4914237;28;49782;-75
2023/03/03 16:12:00;;;;;;;;;33.75;32.25;;;;;8.25;90.42;102157.66;4881237;28;49899;-74
2023/03/03 16:14:42;;;;;;;;;49.00;41.00;;;;;8.23;91.17;102167.16;4913878;28;49842;-71
2023/03/03 16:17:35;;;;;;;;;34.75;32.00;;;;;7.32;91.64;102019.34;4913649;28;50017;-75
2023/03/03 16:20:34;;;;;;;;;49.50;36.75;;;;;8.10;92.64;102162.06;4913957;28;50026;-73
2023/03/03 16:23:05;;;;;;;;;24.00;15.00;;;;;8.04;92.91;102171.41;4913777;28;49748;-69
2023/03/03 16:25:56;;;;;;;;;40.75;34.75;;;;;7.58;94.20;102100.06;4913285;28;49692;-69
2023/03/03 16:28:36;;;;;;;;;35.25;34.00;;;;;7.92;94.06;102175.97;4913557;28;50087;-73
2023/03/03 16:31:04;;;;;;;;;37.25;30.25;;;;;7.84;93.82;102189.44;4913542;28;49954;-72
2023/03/03 16:33:52;;;;;;;;;42.25;38.50;;;;;7.65;95.13;102188.44;4912309;28;49802;-68
2023/03/03 16:36:47;;;;;;;;;38.00;32.25;;;;;7.65;94.49;102198.00;4913827;28;49739;-71
2023/03/03 16:39:34;;;;;;;;;37.75;36.50;;;;;7.29;95.74;102144.59;4861098;28;51212;-68
2023/03/03 16:42:09;;;;;;;;;38.25;33.25;;;;;7.26;96.73;102147.94;4913177;28;49901;-68
2023/03/03 16:44:53;;;;;;;;;41.25;32.25;;;;;7.54;97.12;102209.56;4913295;28;50038;-69
2023/03/03 16:47:43;;;;;;;;;45.75;31.50;;;;;7.41;96.97;102228.88;4913405;28;50456;-68
2023/03/03 16:50:52;;;;;;;;;43.25;32.50;;;;;6.93;95.92;102154.72;4912920;28;51476;-69
2023/03/03 16:53:36;;;;;;;;;32.25;26.25;;;;;7.16;97.15;102216.13;4898565;28;49656;-70
2023/03/03 16:56:20;;;;;;;;;21.50;21.50;;;;;7.03;98.80;102231.88;4912426;28;49839;-71
2023/03/03 16:59:21;;;;;;;;;27.50;25.00;;;;;6.62;99.34;102172.94;4912413;28;49728;-73
2023/03/03 17:01:49;;;;;;;;;37.75;34.50;;;;;6.84;100.00;102227.28;4897771;28;50729;-73
2023/03/03 17:04:26;;;;;;;;;24.00;22.75;;;;;6.76;100.00;102242.50;4912422;28;49677;-76
2023/03/03 17:07:01;;;;;;;;;50.25;40.00;;;;;6.73;100.00;102276.25;4914514;28;49740;-74
2023/03/03 17:09:45;;;;;;;;;35.75;26.50;;;;;6.65;100.00;102233.13;4925634;28;49847;-71
2023/03/03 17:12:19;;;;;;;;;36.75;33.00;;;;;6.59;100.00;102249.31;4921203;28;52184;-70
2023/03/03 17:14:57;;;;;;;;;46.25;34.00;;;;;6.50;100.00;102248.75;4912915;28;49650;-71
2023/03/03 17:17:45;;;;;;;;;37.25;34.25;;;;;6.46;100.00;102245.84;4912616;28;49748;-70
2023/03/03 17:20:32;;;;;;;;;41.75;39.00;;;;;5.99;100.00;102195.22;4912965;28;49692;-73
2023/03/03 17:23:26;;;;;;;;;40.50;38.50;;;;;6.05;100.00;102225.06;4911157;28;52261;-71
2023/03/03 17:25:51;;;;;;;;;45.50;34.75;;;;;6.19;100.00;102268.56;4912394;28;49734;-69
2023/03/03 17:28:51;;;;;;;;;40.50;32.50;;;;;5.81;100.00;102212.28;4912803;28;49699;-72
2023/03/03 17:31:36;;;;;;;;;42.75;39.25;;;;;4.92;100.00;102137.94;4912233;28;50308;-72
2023/03/03 17:34:19;;;;;;;;;42.75;38.00;;;;;6.01;100.00;102287.44;4912471;28;49691;-71
2023/03/03 17:36:58;;;;;;;;;44.25;38.00;;;;;5.96;100.00;102307.09;4912492;28;49802;-72
2023/03/03 17:39:51;;;;;;;;;39.50;34.75;;;;;5.93;100.00;102290.38;4912668;28;49841;-69
2023/03/03 17:42:31;;;;;;;;;33.75;29.50;;;;;5.87;100.00;102295.16;4912759;28;49964;-73
2023/03/03 17:45:07;;;;;;;;;34.50;31.00;;;;;5.50;100.00;102253.72;4912212;28;50034;-73
2023/03/03 17:47:38;;;;;;;;;41.00;37.75;;;;;5.76;100.00;102302.28;4912568;28;49735;-69
2023/03/03 17:50:22;;;;;;;;;35.50;32.50;;;;;5.78;100.00;102312.78;4911009;28;49941;-69
2023/03/03 17:53:31;;;;;;;;;38.50;34.00;;;;;5.74;100.00;102319.53;4912649;28;49811;-69
2023/03/03 17:56:04;;;;;;;;;38.00;31.75;;;;;5.37;100.00;102267.63;4859223;28;49850;-68
2023/03/03 17:58:41;;;;;;;;;43.00;32.25;;;;;5.66;100.00;102316.41;4914068;28;50037;-69
2023/03/03 18:01:22;;;;;;;;;38.50;35.50;;;;;3.74;100.00;101997.50;4915801;28;50219;-69
2023/03/03 18:04:02;;;;;;;;;37.25;30.25;;;;;5.21;100.00;102269.09;4916170;28;49814;-69
2023/03/03 18:06:55;;;;;;;;;18.00;16.50;;;;;5.50;100.00;102330.94;4915554;28;51386;-70
2023/03/03 18:09:25;;;;;;;;;39.25;30.50;;;;;5.49;100.00;102331.72;4915478;28;49742;-68
2023/03/03 18:12:15;;;;;;;;;37.25;32.25;;;;;5.46;100.00;102325.53;4915672;28;49845;-69
2023/03/03 18:14:50;;;;;;;;;42.50;34.75;;;;;5.40;100.00;102329.41;4915591;28;49894;-68
2023/03/03 18:17:24;;;;;;;;;35.75;30.25;;;;;5.33;100.00;102333.34;4915507;28;50005;-69
2023/03/03 18:20:11;;;;;;;;;46.25;33.25;;;;;4.77;100.00;102246.22;4915465;28;49778;-69
2023/03/03 18:22:45;;;;;;;;;42.00;29.25;;;;;4.93;100.00;102280.31;4914225;28;49753;-60
2023/03/03 18:25:12;;;;;;;;;38.00;33.00;;;;;5.30;100.00;102330.50;4915342;28;49902;-60
2023/03/03 18:27:39;;;;;;;;;39.25;35.75;;;;;5.21;100.00;102319.50;4915117;28;52143;-60
2023/03/03 18:30:17;;;;;;;;;41.00;37.00;;;;;5.25;100.00;102342.34;4915386;28;49932;-61
2023/03/03 18:32:45;;;;;;;;;46.00;39.25;;;;;5.23;100.00;102354.34;4915311;28;49670;-60
2023/03/03 18:35:34;;;;;;;;;36.50;26.00;;;;;5.12;100.00;102345.81;4915475;28;49969;-60
2023/03/03 18:38:14;;;;;;;;;41.00;37.00;;;;;5.20;100.00;102356.72;4903330;28;51607;-61
2023/03/03 18:41:18;;;;;;;;;44.25;39.00;;;;;4.59;100.00;102257.16;4914996;28;50047;-71
2023/03/03 18:43:43;;;;;;;;;42.00;35.25;;;;;5.17;100.00;102362.63;4915359;28;49668;-71
2023/03/03 18:46:23;;;;;;;;;47.25;39.75;;;;;5.17;100.00;102366.94;4913931;28;49996;-69
2023/03/03 18:48:58;;;;;;;;;40.75;36.25;;;;;5.07;100.00;102346.28;4913518;28;51943;-70
2023/03/03 18:51:41;;;;;;;;;39.75;29.25;;;;;5.13;100.00;102372.75;4914812;28;49960;-67
2023/03/03 18:54:20;;;;;;;;;47.50;36.00;;;;;5.11;100.00;102374.31;4915084;28;49914;-65
2023/03/03 18:57:03;;;;;;;;;38.00;33.00;;;;;4.92;100.00;102348.72;4913904;28;49951;-69
2023/03/03 18:59:29;;;;;;;;;39.00;35.00;;;;;5.05;100.00;102390.44;4929385;28;51937;-64
2023/03/03 19:02:12;;;;;;;;;43.75;35.75;;;;;4.93;100.00;102373.97;4915119;28;49869;-65
2023/03/03 19:04:47;;;;;;;;;45.75;38.75;;;;;4.69;100.00;102341.03;4914879;28;49798;-68
2023/03/03 19:07:25;;;;;;;;;54.75;42.50;;;;;4.89;100.00;102377.16;4915019;28;50042;-65
2023/03/03 19:09:57;;;;;;;;;41.75;36.75;;;;;4.84;100.00;102374.25;4921651;28;49781;-70
2023/03/03 19:12:42;;;;;;;;;44.00;38.00;;;;;4.90;100.00;102389.38;4924112;28;49715;-67
2023/03/03 19:15:30;;;;;;;;;50.50;44.00;;;;;4.89;100.00;102385.88;4918877;28;49442;-66
2023/03/03 19:18:03;;;;;;;;;44.75;41.00;;;;;4.88;100.00;102391.88;4928221;28;49837;-62
2023/03/03 19:20:40;;;;;;;;;47.75;42.50;;;;;4.71;100.00;102365.47;4919791;28;49975;-63
2023/03/03 19:23:12;;;;;;;;;45.25;40.00;;;;;4.43;100.00;102313.22;4912888;28;49828;-68
2023/03/03 19:25:38;;;;;;;;;48.50;41.25;;;;;4.80;100.00;102387.81;4906936;28;49833;-62
2023/03/03 19:28:09;;;;;;;;;61.25;48.25;;;;;4.85;100.00;102401.16;4911935;28;49703;-60
2023/03/03 19:30:40;;;;;;;;;100.33;78.00;;;;;4.82;100.00;102401.84;4912958;28;51463;-62
2023/03/03 19:33:16;;;;;;;;;51.00;42.75;;;;;4.62;100.00;102370.91;4929202;28;49784;-62
2023/03/03 19:35:51;;;;;;;;;48.00;41.00;;;;;4.63;100.00;102370.13;4914747;28;49803;-63
2023/03/03 19:38:45;;;;;;;;;49.75;43.50;;;;;4.59;100.00;102379.41;4914266;28;49851;-65
2023/03/03 19:41:16;;;;;;;;;49.00;40.25;;;;;4.78;100.00;102409.34;4890958;28;50760;-60
2023/03/03 19:43:58;;;;;;;;;46.00;34.25;;;;;4.73;100.00;102402.88;4894630;28;51023;-65
2023/03/03 19:46:32;;;;;;;;;44.50;37.75;;;;;4.70;100.00;102402.69;4890848;28;50169;-62
2023/03/03 19:49:29;;;;;;;;;44.50;38.25;;;;;4.69;100.00;102404.38;4894247;28;50393;-64
2023/03/03 19:52:12;;;;;;;;;44.50;38.75;;;;;4.67;100.00;102402.47;4889262;28;51875;-72
2023/03/03 19:54:59;;;;;;;;;53.00;40.50;;;;;4.42;100.00;102379.91;4889675;28;49996;-70
2023/03/03 19:57:28;;;;;;;;;53.25;43.00;;;;;4.58;100.00;102421.84;4890302;28;49772;-71
2023/03/03 20:00:04;;;;;;;;;42.00;35.25;;;;;4.58;100.00;102411.44;4887192;28;50073;-64
2023/03/03 20:02:43;;;;;;;;;57.25;46.50;;;;;4.59;100.00;102409.72;4888473;28;52286;-63
2023/03/03 20:05:38;;;;;;;;;46.50;43.25;;;;;4.58;100.00;102416.63;4888049;28;50141;-69
2023/03/03 20:08:06;;;;;;;;;47.25;41.25;;;;;4.55;100.00;102426.81;4889096;28;50022;-71
2023/03/03 20:11:04;;;;;;;;;42.75;30.00;;;;;4.48;100.00;102421.06;4904884;28;50226;-61
2023/03/03 20:13:30;;;;;;;;;46.00;36.00;;;;;4.46;100.00;102428.78;4896364;28;52185;-62
2023/03/03 20:16:26;;;;;;;;;56.50;44.50;;;;;4.48;100.00;102421.06;4911915;28;49920;-72
2023/03/03 20:19:09;;;;;;;;;45.25;37.50;;;;;4.28;100.00;102398.84;4907578;28;49841;-63